Time;durP1;ratioP1;P1;durP2;ratioP2;P2;SDS_P1;SDS_P2;PMS_P1;PMS_P2;Temp;Humidity;BMP_temperature;BMP_pressure;BME280_temperature;BME280_humidity;BME280_pressure;Samples;Min_cycle;Max_cycle;Signal;HPM_P1;HPM_P2
2023/08/31 00:01:53;;;;;;;17.52;11.48;;;;;;;;;;5072335;28;20032;-80
2023/08/31 00:04:18;;;;;;;19.77;11.90;;;;;;;;;;5090833;28;20036;-80
2023/08/31 00:06:45;;;;;;;21.25;12.38;;;;;;;;;;5089471;28;20016;-80
2023/08/31 00:09:11;;;;;;;19.33;12.63;;;;;;;;;;5090170;28;20506;-80
2023/08/31 00:11:36;;;;;;;23.00;12.90;;;;;;;;;;5089489;28;20028;-80
2023/08/31 00:14:02;;;;;;;17.23;12.32;;;;;;;;;;5089422;28;20036;-79
2023/08/31 00:16:27;;;;;;;21.60;13.05;;;;;;;;;;5089455;28;20070;-79
2023/08/31 00:18:56;;;;;;;15.93;12.55;;;;;;;;;;5087804;28;20040;-80
2023/08/31 00:21:22;;;;;;;18.23;12.00;;;;;;;;;;5090662;28;20032;-80
2023/08/31 00:23:48;;;;;;;20.35;12.77;;;;;;;;;;5088997;28;20036;-80
2023/08/31 00:26:13;;;;;;;22.55;13.18;;;;;;;;;;5090571;28;20048;-80
2023/08/31 00:28:42;;;;;;;20.38;13.85;;;;;;;;;;5088922;28;20031;-79
2023/08/31 00:31:10;;;;;;;20.90;13.57;;;;;;;;;;5089562;28;20036;-80
2023/08/31 00:33:37;;;;;;;21.05;12.82;;;;;;;;;;5091048;28;20047;-80
2023/08/31 00:36:03;;;;;;;23.27;14.77;;;;;;;;;;5089285;28;20115;-78
2023/08/31 00:38:29;;;;;;;18.58;13.13;;;;;;;;;;5072079;28;20142;-78
2023/08/31 00:40:54;;;;;;;21.65;13.27;;;;;;;;;;5069246;28;20483;-78
2023/08/31 00:43:20;;;;;;;23.75;14.23;;;;;;;;;;5090163;28;20039;-79
2023/08/31 00:45:46;;;;;;;19.70;13.63;;;;;;;;;;5097984;28;20023;-80
2023/08/31 00:48:12;;;;;;;22.52;14.05;;;;;;;;;;5075563;28;20115;-79
2023/08/31 00:50:37;;;;;;;20.52;14.45;;;;;;;;;;5099730;28;20060;-79
2023/08/31 00:53:03;;;;;;;24.35;14.07;;;;;;;;;;5080845;28;20035;-79
2023/08/31 00:55:31;;;;;;;22.25;14.45;;;;;;;;;;5086345;28;20024;-80
2023/08/31 00:57:58;;;;;;;24.33;14.90;;;;;;;;;;5087621;28;20067;-80
2023/08/31 01:00:24;;;;;;;22.55;14.80;;;;;;;;;;5093404;28;20533;-79
2023/08/31 01:03:13;;;;;;;21.17;14.65;;;;;;;;;;5076124;28;20024;-79
2023/08/31 01:05:53;;;;;;;21.23;14.48;;;;;;;;;;5079281;28;20127;-79
2023/08/31 01:08:25;;;;;;;26.00;15.57;;;;;;;;;;5074454;28;20032;-79
2023/08/31 01:11:03;;;;;;;25.50;15.98;;;;;;;;;;5093945;28;20043;-80
2023/08/31 01:13:28;;;;;;;25.75;16.20;;;;;;;;;;5072999;28;20505;-80
2023/08/31 01:15:55;;;;;;;18.52;11.40;;;;;;;;;;5092777;28;20024;-80
2023/08/31 01:18:21;;;;;;;25.90;16.20;;;;;;;;;;5105241;28;20225;-79
2023/08/31 01:20:47;;;;;;;26.20;16.65;;;;;;;;;;5083050;28;20059;-80
2023/08/31 01:23:16;;;;;;;26.33;16.60;;;;;;;;;;5093880;28;20503;-79
2023/08/31 01:25:43;;;;;;;26.27;16.23;;;;;;;;;;5092512;28;20131;-79
2023/08/31 01:28:08;;;;;;;24.83;16.73;;;;;;;;;;5075399;28;20390;-79
2023/08/31 01:30:34;;;;;;;23.98;16.80;;;;;;;;;;5092039;28;20028;-79
2023/08/31 01:33:00;;;;;;;23.98;15.30;;;;;;;;;;5075906;28;20032;-79
2023/08/31 01:35:26;;;;;;;22.02;14.85;;;;;;;;;;5092198;28;20035;-79
2023/08/31 01:37:58;;;;;;;26.75;16.65;;;;;;;;;;5092518;28;20566;-79
2023/08/31 01:40:33;;;;;;;24.08;14.57;;;;;;;;;;5091658;28;20036;-79
2023/08/31 01:43:03;;;;;;;24.67;15.55;;;;;;;;;;5092134;28;20059;-79
2023/08/31 01:45:28;;;;;;;28.52;16.92;;;;;;;;;;5091883;28;20036;-80
2023/08/31 01:47:54;;;;;;;22.70;16.13;;;;;;;;;;5091990;28;20047;-79
2023/08/31 01:50:20;;;;;;;26.85;16.77;;;;;;;;;;5058152;28;20052;-79
2023/08/31 01:52:45;;;;;;;32.92;23.10;;;;;;;;;;5091041;28;20380;-79
2023/08/31 01:55:13;;;;;;;26.55;17.27;;;;;;;;;;5091601;28;20058;-79
2023/08/31 01:57:38;;;;;;;27.70;17.23;;;;;;;;;;5091151;28;20138;-79
2023/08/31 02:00:10;;;;;;;27.50;16.77;;;;;;;;;;5091753;28;20036;-80
2023/08/31 02:02:42;;;;;;;25.52;16.08;;;;;;;;;;5091659;28;20043;-79
2023/08/31 02:05:07;;;;;;;32.72;18.55;;;;;;;;;;5091572;28;20399;-79
2023/08/31 02:07:33;;;;;;;24.80;15.32;;;;;;;;;;5098562;27;20024;-79
2023/08/31 02:09:58;;;;;;;27.50;17.30;;;;;;;;;;5091144;28;20032;-79
2023/08/31 02:12:24;;;;;;;26.60;16.92;;;;;;;;;;5091455;28;20494;-79
2023/08/31 02:14:49;;;;;;;25.02;17.23;;;;;;;;;;5092102;28;20039;-79
2023/08/31 02:17:15;;;;;;;25.70;16.63;;;;;;;;;;5091396;28;20718;-79
2023/08/31 02:19:40;;;;;;;26.38;16.70;;;;;;;;;;5090564;28;20559;-79
2023/08/31 02:22:06;;;;;;;29.75;17.27;;;;;;;;;;5090854;28;20027;-79
2023/08/31 02:24:31;;;;;;;28.08;17.05;;;;;;;;;;5091080;28;20032;-79
2023/08/31 02:26:57;;;;;;;26.92;17.40;;;;;;;;;;5074008;28;20052;-79
2023/08/31 02:29:25;;;;;;;25.23;17.13;;;;;;;;;;5074590;28;20032;-79
2023/08/31 02:31:51;;;;;;;29.23;17.42;;;;;;;;;;5092030;28;20447;-79
2023/08/31 02:34:16;;;;;;;25.60;17.67;;;;;;;;;;5091790;28;20038;-79
2023/08/31 02:36:41;;;;;;;28.75;18.05;;;;;;;;;;5090879;28;20548;-79
2023/08/31 02:39:09;;;;;;;26.50;17.15;;;;;;;;;;5092376;28;20097;-79
2023/08/31 02:41:36;;;;;;;25.85;17.52;;;;;;;;;;5091846;28;20039;-79
2023/08/31 02:44:03;;;;;;;25.40;16.13;;;;;;;;;;5074376;28;20049;-79
2023/08/31 02:46:29;;;;;;;25.25;17.20;;;;;;;;;;5091836;28;20026;-79
2023/08/31 02:48:54;;;;;;;27.65;16.70;;;;;;;;;;5091364;28;20060;-79
2023/08/31 02:51:20;;;;;;;24.88;16.88;;;;;;;;;;5090807;28;20054;-79
2023/08/31 02:53:45;;;;;;;26.17;16.30;;;;;;;;;;5092001;28;20036;-79
2023/08/31 02:56:11;;;;;;;24.67;17.38;;;;;;;;;;5090978;28;20102;-80
2023/08/31 02:58:37;;;;;;;25.15;16.95;;;;;;;;;;5092296;28;20063;-79
2023/08/31 03:01:11;;;;;;;26.77;17.20;;;;;;;;;;5090318;28;20063;-79
2023/08/31 03:03:38;;;;;;;25.13;16.65;;;;;;;;;;5074363;28;20028;-79
2023/08/31 03:06:05;;;;;;;25.05;16.42;;;;;;;;;;5090574;28;20020;-79
2023/08/31 03:08:31;;;;;;;20.67;15.05;;;;;;;;;;5090764;28;20078;-79
2023/08/31 03:10:56;;;;;;;29.40;15.40;;;;;;;;;;5090903;28;20410;-78
2023/08/31 03:13:22;;;;;;;26.02;17.08;;;;;;;;;;5073657;28;20040;-79
2023/08/31 03:15:47;;;;;;;30.50;18.30;;;;;;;;;;5089698;28;20030;-79
2023/08/31 03:18:13;;;;;;;23.08;15.95;;;;;;;;;;5091731;28;20059;-80
2023/08/31 03:20:38;;;;;;;24.58;17.20;;;;;;;;;;5089610;28;20020;-80
2023/08/31 03:23:04;;;;;;;29.13;17.27;;;;;;;;;;5089546;28;20039;-79
2023/08/31 03:25:29;;;;;;;27.80;16.85;;;;;;;;;;5072500;28;20071;-79
2023/08/31 03:27:55;;;;;;;26.08;16.70;;;;;;;;;;5073514;28;20497;-79
2023/08/31 03:30:20;;;;;;;29.05;17.58;;;;;;;;;;5089671;28;20141;-79
2023/08/31 03:32:47;;;;;;;27.02;17.65;;;;;;;;;;5090138;28;20118;-80
2023/08/31 03:35:13;;;;;;;26.20;17.00;;;;;;;;;;5072659;28;20047;-80
2023/08/31 03:37:39;;;;;;;25.42;17.25;;;;;;;;;;5073096;28;20039;-80
2023/08/31 03:40:06;;;;;;;30.08;17.10;;;;;;;;;;5090120;28;20020;-80
2023/08/31 03:42:31;;;;;;;24.90;17.52;;;;;;;;;;5073274;28;20120;-79
2023/08/31 03:44:57;;;;;;;31.33;16.77;;;;;;;;;;5089623;28;20110;-79
2023/08/31 03:47:23;;;;;;;27.25;16.45;;;;;;;;;;5090182;28;20047;-79
2023/08/31 03:49:49;;;;;;;27.48;16.75;;;;;;;;;;5069812;28;20021;-79
2023/08/31 03:52:14;;;;;;;24.08;16.40;;;;;;;;;;5094767;28;20024;-79
2023/08/31 03:54:40;;;;;;;28.70;15.68;;;;;;;;;;5089533;28;20102;-79
2023/08/31 03:57:05;;;;;;;25.33;16.23;;;;;;;;;;5090467;28;20028;-79
2023/08/31 03:59:31;;;;;;;25.15;16.63;;;;;;;;;;5089178;28;20127;-78
2023/08/31 04:01:56;;;;;;;29.95;16.75;;;;;;;;;;5089511;28;20069;-78
2023/08/31 04:04:22;;;;;;;25.95;16.65;;;;;;;;;;5089650;28;20081;-78
2023/08/31 04:06:47;;;;;;;23.52;15.50;;;;;;;;;;5091563;28;20491;-80
2023/08/31 04:09:13;;;;;;;25.20;16.20;;;;;;;;;;5089182;28;20028;-80
2023/08/31 04:11:38;;;;;;;27.30;16.60;;;;;;;;;;5090293;28;20051;-80
2023/08/31 04:14:03;;;;;;;22.80;13.65;;;;;;;;;;5090345;28;20034;-80
2023/08/31 04:16:29;;;;;;;22.23;15.32;;;;;;;;;;5072122;28;20047;-80
2023/08/31 04:18:55;;;;;;;23.08;15.45;;;;;;;;;;5089606;28;20068;-79
2023/08/31 04:21:20;;;;;;;25.65;15.25;;;;;;;;;;5089492;28;20028;-80
2023/08/31 04:23:46;;;;;;;29.13;15.75;;;;;;;;;;5088915;28;20019;-80
2023/08/31 04:26:12;;;;;;;21.58;14.95;;;;;;;;;;5091258;28;20146;-80
2023/08/31 04:28:38;;;;;;;22.08;12.15;;;;;;;;;;5088782;28;20043;-80
2023/08/31 04:31:04;;;;;;;26.70;15.13;;;;;;;;;;5089074;28;20475;-80
2023/08/31 04:33:30;;;;;;;23.80;15.18;;;;;;;;;;5094502;28;20039;-80
2023/08/31 04:35:55;;;;;;;23.65;14.48;;;;;;;;;;5097085;28;20039;-79
2023/08/31 04:38:21;;;;;;;24.33;14.68;;;;;;;;;;5097609;28;20076;-80
2023/08/31 04:40:46;;;;;;;22.50;14.25;;;;;;;;;;5095927;28;20040;-80
2023/08/31 04:43:12;;;;;;;27.15;15.38;;;;;;;;;;5097106;28;20027;-80
2023/08/31 04:45:37;;;;;;;23.45;13.77;;;;;;;;;;5101252;28;20090;-79
2023/08/31 04:48:03;;;;;;;24.92;13.98;;;;;;;;;;5099204;28;20056;-80
2023/08/31 04:50:29;;;;;;;19.92;14.38;;;;;;;;;;5095720;28;20122;-79
2023/08/31 04:52:54;;;;;;;24.23;14.02;;;;;;;;;;5077164;28;20031;-80
2023/08/31 04:55:21;;;;;;;25.33;12.80;;;;;;;;;;5096902;28;20036;-79
2023/08/31 04:57:46;;;;;;;25.90;15.52;;;;;;;;;;5095319;28;20024;-79
2023/08/31 05:00:12;;;;;;;22.73;13.50;;;;;;;;;;5096735;28;20070;-80
2023/08/31 05:02:38;;;;;;;29.73;14.77;;;;;;;;;;5096475;28;20032;-80
2023/08/31 05:05:04;;;;;;;21.60;13.27;;;;;;;;;;5098019;28;20065;-80
2023/08/31 05:07:30;;;;;;;23.58;13.30;;;;;;;;;;5078617;28;20459;-81
2023/08/31 05:09:55;;;;;;;17.70;11.02;;;;;;;;;;5095377;28;20055;-80
2023/08/31 05:12:21;;;;;;;24.75;12.48;;;;;;;;;;5096505;28;20449;-80
2023/08/31 05:14:46;;;;;;;22.38;12.90;;;;;;;;;;5096623;28;20119;-80
2023/08/31 05:17:12;;;;;;;19.90;12.52;;;;;;;;;;5096249;28;20020;-80
2023/08/31 05:19:37;;;;;;;22.80;11.85;;;;;;;;;;5095567;28;20054;-80
2023/08/31 05:22:03;;;;;;;19.25;11.68;;;;;;;;;;5094981;28;20039;-81
2023/08/31 05:24:28;;;;;;;16.95;11.50;;;;;;;;;;5096684;28;20118;-80
2023/08/31 05:26:54;;;;;;;20.98;12.32;;;;;;;;;;5096385;28;20077;-79
2023/08/31 05:29:19;;;;;;;17.42;11.88;;;;;;;;;;5096927;28;20055;-80
2023/08/31 05:31:45;;;;;;;19.02;13.02;;;;;;;;;;5097503;28;20399;-79
2023/08/31 05:34:10;;;;;;;24.98;12.77;;;;;;;;;;5096304;28;20032;-80
2023/08/31 05:36:36;;;;;;;23.10;12.40;;;;;;;;;;5090808;28;20031;-80
2023/08/31 05:39:01;;;;;;;19.55;11.95;;;;;;;;;;5096521;28;20114;-80
2023/08/31 05:41:27;;;;;;;25.45;13.02;;;;;;;;;;5071412;28;20051;-80
2023/08/31 05:43:52;;;;;;;21.23;12.30;;;;;;;;;;5095752;28;20062;-80
2023/08/31 05:46:18;;;;;;;16.00;8.98;;;;;;;;;;5093025;28;20032;-80
2023/08/31 05:48:43;;;;;;;20.45;12.00;;;;;;;;;;5092521;28;20047;-80
2023/08/31 05:51:09;;;;;;;19.40;10.80;;;;;;;;;;5092063;28;20111;-80
2023/08/31 05:53:35;;;;;;;23.88;10.30;;;;;;;;;;5091693;28;20128;-79
2023/08/31 05:56:06;;;;;;;16.35;9.82;;;;;;;;;;5091808;28;20023;-80
2023/08/31 05:58:35;;;;;;;13.00;9.63;;;;;;;;;;5091653;28;20135;-79
2023/08/31 06:01:02;;;;;;;16.48;10.55;;;;;;;;;;5092533;28;20036;-80
2023/08/31 06:03:28;;;;;;;18.50;9.93;;;;;;;;;;5092470;28;20055;-79
2023/08/31 06:05:54;;;;;;;16.77;9.30;;;;;;;;;;5091448;28;20043;-80
2023/08/31 06:08:19;;;;;;;18.45;9.95;;;;;;;;;;5091643;28;20066;-80
2023/08/31 06:10:45;;;;;;;14.02;9.10;;;;;;;;;;5092708;28;20043;-80
2023/08/31 06:13:10;;;;;;;17.38;9.02;;;;;;;;;;5074541;28;20042;-80
2023/08/31 06:15:36;;;;;;;14.93;9.45;;;;;;;;;;5092835;28;20028;-80
2023/08/31 06:18:02;;;;;;;15.32;8.75;;;;;;;;;;5092841;28;20036;-80
2023/08/31 06:20:28;;;;;;;15.77;9.25;;;;;;;;;;5092891;28;20480;-80
2023/08/31 06:22:53;;;;;;;18.80;9.63;;;;;;;;;;5092431;28;20040;-80
2023/08/31 06:25:18;;;;;;;13.93;8.73;;;;;;;;;;5073788;28;20052;-80
2023/08/31 06:27:44;;;;;;;16.88;9.35;;;;;;;;;;5092780;28;20024;-80
2023/08/31 06:30:15;;;;;;;16.80;9.27;;;;;;;;;;5090578;28;20043;-80
2023/08/31 06:32:42;;;;;;;15.43;10.30;;;;;;;;;;5091945;28;20030;-80
2023/08/31 06:35:07;;;;;;;15.40;9.68;;;;;;;;;;5091725;28;20066;-80
2023/08/31 06:37:33;;;;;;;16.55;9.25;;;;;;;;;;5092805;28;20067;-81
2023/08/31 06:39:58;;;;;;;18.77;10.15;;;;;;;;;;5091549;28;20386;-80
2023/08/31 06:42:24;;;;;;;14.23;9.10;;;;;;;;;;5090914;28;20028;-80
2023/08/31 06:44:51;;;;;;;21.13;9.20;;;;;;;;;;5090569;28;20115;-80
2023/08/31 06:47:17;;;;;;;15.73;9.15;;;;;;;;;;5092054;28;20044;-80
2023/08/31 06:49:43;;;;;;;16.83;8.88;;;;;;;;;;5090446;28;20020;-81
2023/08/31 06:52:08;;;;;;;13.23;8.40;;;;;;;;;;5092393;28;20432;-81
2023/08/31 06:54:34;;;;;;;18.10;7.70;;;;;;;;;;5091093;28;20475;-80
2023/08/31 06:56:59;;;;;;;18.27;8.25;;;;;;;;;;5088381;28;20036;-80
2023/08/31 06:59:25;;;;;;;14.30;8.48;;;;;;;;;;5089521;28;20552;-79
2023/08/31 07:01:50;;;;;;;13.45;8.95;;;;;;;;;;5091580;28;20602;-80
2023/08/31 07:04:16;;;;;;;12.30;8.40;;;;;;;;;;5072914;28;20399;-82
2023/08/31 07:06:41;;;;;;;17.25;11.15;;;;;;;;;;5092712;28;20475;-80
2023/08/31 07:09:08;;;;;;;14.60;8.77;;;;;;;;;;5090177;28;20031;-81
2023/08/31 07:11:34;;;;;;;12.60;9.20;;;;;;;;;;5088527;28;20031;-80
2023/08/31 07:13:59;;;;;;;12.77;7.43;;;;;;;;;;5090065;28;20030;-80
2023/08/31 07:16:25;;;;;;;15.85;8.82;;;;;;;;;;5090471;28;20526;-83
2023/08/31 07:18:51;;;;;;;21.25;8.30;;;;;;;;;;5072152;28;20028;-81
2023/08/31 07:21:16;;;;;;;12.75;7.13;;;;;;;;;;5089995;28;20046;-81
2023/08/31 07:23:42;;;;;;;15.70;7.82;;;;;;;;;;5090797;28;20039;-81
2023/08/31 07:26:07;;;;;;;13.98;8.45;;;;;;;;;;5090330;28;20105;-81
2023/08/31 07:28:33;;;;;;;15.70;10.77;;;;;;;;;;5091140;28;20552;-81
2023/08/31 07:31:03;;;;;;;14.02;7.80;;;;;;;;;;5091479;28;20047;-80
2023/08/31 07:33:30;;;;;;;14.48;7.68;;;;;;;;;;5091219;28;20448;-82
2023/08/31 07:35:56;;;;;;;14.38;8.48;;;;;;;;;;5073977;28;20489;-80
2023/08/31 07:38:21;;;;;;;12.57;7.40;;;;;;;;;;5090245;28;20059;-81
2023/08/31 07:40:46;;;;;;;13.45;8.73;;;;;;;;;;5091379;28;20502;-80
2023/08/31 07:43:12;;;;;;;16.00;7.95;;;;;;;;;;5091046;28;20023;-81
2023/08/31 07:45:37;;;;;;;11.48;6.82;;;;;;;;;;5089720;28;20509;-81
2023/08/31 07:48:03;;;;;;;13.18;6.72;;;;;;;;;;5090602;28;20051;-81
2023/08/31 07:50:28;;;;;;;11.35;6.65;;;;;;;;;;5090608;28;20028;-81
2023/08/31 07:52:54;;;;;;;12.57;6.68;;;;;;;;;;5090113;28;20443;-82
2023/08/31 07:55:20;;;;;;;10.50;6.57;;;;;;;;;;5081014;28;20089;-80
2023/08/31 07:57:46;;;;;;;11.10;6.60;;;;;;;;;;5091026;28;20032;-81
2023/08/31 08:00:13;;;;;;;11.13;6.40;;;;;;;;;;5090328;28;20500;-80
2023/08/31 08:02:40;;;;;;;14.23;6.30;;;;;;;;;;5090322;28;20107;-81
2023/08/31 08:05:06;;;;;;;13.43;6.53;;;;;;;;;;5072102;28;20459;-81
2023/08/31 08:07:31;;;;;;;10.75;5.55;;;;;;;;;;5090055;28;20024;-81
2023/08/31 08:09:57;;;;;;;10.60;6.65;;;;;;;;;;5084901;28;20055;-81
2023/08/31 08:12:23;;;;;;;11.30;7.57;;;;;;;;;;5090466;28;20027;-81
2023/08/31 08:14:49;;;;;;;10.82;6.80;;;;;;;;;;5090451;28;20032;-82
2023/08/31 08:17:14;;;;;;;10.95;6.45;;;;;;;;;;5083256;28;20024;-81
2023/08/31 08:19:40;;;;;;;17.15;6.68;;;;;;;;;;5090361;28;20514;-82
2023/08/31 08:22:06;;;;;;;9.15;6.32;;;;;;;;;;5090453;28;20027;-81
2023/08/31 08:24:31;;;;;;;11.00;6.28;;;;;;;;;;5090159;28;20102;-82
2023/08/31 08:26:57;;;;;;;10.73;6.65;;;;;;;;;;5086010;28;20061;-81
2023/08/31 08:29:22;;;;;;;9.05;5.80;;;;;;;;;;5087570;28;20028;-83
2023/08/31 08:31:48;;;;;;;8.15;5.28;;;;;;;;;;5090223;28;20501;-81
2023/08/31 08:34:13;;;;;;;10.00;6.05;;;;;;;;;;5089822;28;20020;-81
2023/08/31 08:36:39;;;;;;;11.13;6.03;;;;;;;;;;5086882;28;20041;-81
2023/08/31 08:39:04;;;;;;;12.68;5.55;;;;;;;;;;5090128;28;20104;-81
2023/08/31 08:41:30;;;;;;;11.93;5.28;;;;;;;;;;5090190;28;20035;-82
2023/08/31 08:43:55;;;;;;;9.77;6.32;;;;;;;;;;5083591;28;20505;-81
2023/08/31 08:46:20;;;;;;;7.82;5.68;;;;;;;;;;5088367;28;20027;-81
2023/08/31 08:48:46;;;;;;;9.82;6.07;;;;;;;;;;5091186;28;20012;-81
2023/08/31 08:51:12;;;;;;;12.05;5.90;;;;;;;;;;5092971;28;20050;-81
2023/08/31 08:53:38;;;;;;;9.70;5.75;;;;;;;;;;5088746;28;20071;-81
2023/08/31 08:56:04;;;;;;;10.90;5.57;;;;;;;;;;5090033;28;20032;-81
2023/08/31 08:58:29;;;;;;;11.18;5.82;;;;;;;;;;5090035;28;20020;-82
2023/08/31 09:00:58;;;;;;;10.68;5.65;;;;;;;;;;5084776;28;20049;-81
2023/08/31 09:03:24;;;;;;;9.70;5.68;;;;;;;;;;5088797;28;20024;-81
2023/08/31 09:05:50;;;;;;;10.13;5.50;;;;;;;;;;5089500;28;20039;-81
2023/08/31 09:08:15;;;;;;;10.07;5.57;;;;;;;;;;5089604;28;20398;-80
2023/08/31 09:10:41;;;;;;;12.25;5.30;;;;;;;;;;5077523;28;20483;-80
2023/08/31 09:13:08;;;;;;;9.18;5.00;;;;;;;;;;5088615;28;20024;-81
2023/08/31 09:15:51;;;;;;;10.52;5.25;;;;;;;;;;5087848;28;20044;-80
2023/08/31 09:18:24;;;;;;;12.18;5.18;;;;;;;;;;5090244;28;20561;-80
2023/08/31 09:20:49;;;;;;;8.52;5.57;;;;;;;;;;5074230;28;20038;-81
2023/08/31 09:23:15;;;;;;;8.52;5.22;;;;;;;;;;5075071;28;20024;-81
2023/08/31 09:25:41;;;;;;;13.02;5.38;;;;;;;;;;5091969;28;20036;-81
2023/08/31 09:28:06;;;;;;;9.45;5.07;;;;;;;;;;5093540;28;20119;-82
2023/08/31 09:30:38;;;;;;;11.30;5.80;;;;;;;;;;5088259;28;20127;-81
2023/08/31 09:33:04;;;;;;;12.05;5.53;;;;;;;;;;5091989;28;20032;-80
2023/08/31 09:35:29;;;;;;;12.98;5.68;;;;;;;;;;5092749;28;20032;-81
2023/08/31 09:37:58;;;;;;;10.48;4.53;;;;;;;;;;5092794;28;20449;-81
2023/08/31 09:40:24;;;;;;;11.38;5.15;;;;;;;;;;5074891;28;20031;-81
2023/08/31 09:42:50;;;;;;;9.57;5.50;;;;;;;;;;5093458;28;20429;-81
2023/08/31 09:45:17;;;;;;;9.88;4.55;;;;;;;;;;5091524;28;20020;-80
2023/08/31 09:47:45;;;;;;;9.70;4.43;;;;;;;;;;5071580;28;20130;-81
2023/08/31 09:50:10;;;;;;;12.15;5.13;;;;;;;;;;5091437;28;20040;-79
2023/08/31 09:52:37;;;;;;;8.27;4.90;;;;;;;;;;5091708;28;20067;-80
2023/08/31 09:55:03;;;;;;;9.93;5.15;;;;;;;;;;5097466;28;20023;-80
2023/08/31 09:57:29;;;;;;;13.57;4.93;;;;;;;;;;5079975;28;20161;-81
2023/08/31 09:59:54;;;;;;;9.27;4.63;;;;;;;;;;5092113;28;20106;-81
2023/08/31 10:02:20;;;;;;;10.85;4.82;;;;;;;;;;5091335;28;20036;-81
2023/08/31 10:04:45;;;;;;;10.38;5.30;;;;;;;;;;5092566;28;20042;-81
2023/08/31 10:07:11;;;;;;;11.05;5.10;;;;;;;;;;5091568;28;20063;-81
2023/08/31 10:09:36;;;;;;;11.40;5.22;;;;;;;;;;5091778;28;20020;-80
2023/08/31 10:12:03;;;;;;;9.38;4.65;;;;;;;;;;5071173;28;20047;-82
2023/08/31 10:14:28;;;;;;;9.48;4.47;;;;;;;;;;5070283;28;20031;-81
2023/08/31 10:16:54;;;;;;;9.15;4.43;;;;;;;;;;5084283;28;20542;-81
2023/08/31 10:19:19;;;;;;;6.10;4.50;;;;;;;;;;5090808;28;20032;-81
2023/08/31 10:21:45;;;;;;;6.50;4.07;;;;;;;;;;5092169;28;20491;-82
2023/08/31 10:24:10;;;;;;;6.53;4.20;;;;;;;;;;5090124;28;20027;-81
2023/08/31 10:26:36;;;;;;;13.00;4.43;;;;;;;;;;5090727;28;20529;-80
2023/08/31 10:29:03;;;;;;;6.05;4.00;;;;;;;;;;5091884;28;20102;-82
2023/08/31 10:31:29;;;;;;;8.68;4.38;;;;;;;;;;5092095;28;20043;-81
2023/08/31 10:33:58;;;;;;;7.97;4.35;;;;;;;;;;5091495;28;20020;-81
2023/08/31 10:36:44;;;;;;;10.65;4.20;;;;;;;;;;5074179;28;20046;-81
2023/08/31 10:39:16;;;;;;;6.05;4.00;;;;;;;;;;5088004;28;20044;-82
2023/08/31 10:41:42;;;;;;;10.07;4.22;;;;;;;;;;5091310;28;20044;-81
2023/08/31 10:44:43;;;;;;;9.05;4.00;;;;;;;;;;5090392;28;20054;-80
2023/08/31 10:47:09;;;;;;;11.90;4.22;;;;;;;;;;5085992;28;20503;-81
2023/08/31 10:49:36;;;;;;;7.95;4.30;;;;;;;;;;5073593;28;20055;-81
2023/08/31 10:52:18;;;;;;;6.07;3.85;;;;;;;;;;5089198;28;20074;-81
2023/08/31 10:54:43;;;;;;;7.07;4.25;;;;;;;;;;5090835;28;20036;-81
2023/08/31 10:57:11;;;;;;;7.45;3.88;;;;;;;;;;5091972;28;20032;-82
2023/08/31 10:59:55;;;;;;;7.65;4.05;;;;;;;;;;5090306;28;20104;-82
2023/08/31 11:02:28;;;;;;;8.52;3.90;;;;;;;;;;5090183;28;20061;-82
2023/08/31 11:05:00;;;;;;;6.45;4.20;;;;;;;;;;5091112;28;20196;-82
2023/08/31 11:07:26;;;;;;;8.85;4.20;;;;;;;;;;5090012;28;20031;-82
2023/08/31 11:09:52;;;;;;;8.88;4.93;;;;;;;;;;5090699;28;20077;-82
2023/08/31 11:12:21;;;;;;;6.28;3.72;;;;;;;;;;5090528;28;20480;-82
2023/08/31 11:14:47;;;;;;;5.55;4.00;;;;;;;;;;5089794;28;20491;-82
2023/08/31 11:17:13;;;;;;;7.00;3.92;;;;;;;;;;5089981;28;20048;-80
2023/08/31 11:19:38;;;;;;;6.80;3.97;;;;;;;;;;5073101;28;20430;-81
2023/08/31 11:22:04;;;;;;;6.35;3.80;;;;;;;;;;5089615;28;20574;-81
2023/08/31 11:24:32;;;;;;;7.75;4.22;;;;;;;;;;5082663;28;20020;-81
2023/08/31 11:26:58;;;;;;;6.78;3.92;;;;;;;;;;5090226;28;20052;-80
2023/08/31 11:29:23;;;;;;;7.88;3.97;;;;;;;;;;5092010;28;20028;-81
2023/08/31 11:31:49;;;;;;;6.80;4.60;;;;;;;;;;5091649;28;20398;-81
2023/08/31 11:34:15;;;;;;;7.15;3.92;;;;;;;;;;5091503;28;20034;-81
2023/08/31 11:36:41;;;;;;;6.80;3.65;;;;;;;;;;5090840;28;20066;-81
2023/08/31 11:39:07;;;;;;;5.80;4.00;;;;;;;;;;5090182;28;20032;-81
2023/08/31 11:41:33;;;;;;;7.35;4.00;;;;;;;;;;5090593;28;20475;-81
2023/08/31 11:43:58;;;;;;;8.27;3.80;;;;;;;;;;5093295;28;20020;-81
2023/08/31 11:46:24;;;;;;;8.63;3.88;;;;;;;;;;5088454;28;20035;-81
2023/08/31 11:48:50;;;;;;;10.32;4.00;;;;;;;;;;5089330;28;20024;-80
2023/08/31 11:51:15;;;;;;;7.60;3.70;;;;;;;;;;5088973;28;20122;-80
2023/08/31 11:53:41;;;;;;;6.82;3.80;;;;;;;;;;5079081;28;20379;-80
2023/08/31 11:56:06;;;;;;;7.78;3.45;;;;;;;;;;5091250;28;20047;-81
2023/08/31 11:58:32;;;;;;;6.10;3.88;;;;;;;;;;5089920;28;20044;-81
2023/08/31 12:00:58;;;;;;;9.70;3.65;;;;;;;;;;5085542;28;20045;-81
2023/08/31 12:03:23;;;;;;;11.23;3.83;;;;;;;;;;5087600;28;20054;-81
2023/08/31 12:05:51;;;;;;;6.00;3.60;;;;;;;;;;5089901;28;20184;-81
2023/08/31 12:08:23;;;;;;;4.93;3.42;;;;;;;;;;5090582;28;20510;-81
2023/08/31 12:10:48;;;;;;;6.10;3.47;;;;;;;;;;5089573;28;20035;-81
2023/08/31 12:13:14;;;;;;;7.97;3.83;;;;;;;;;;5091226;28;20020;-81
2023/08/31 12:15:39;;;;;;;6.32;3.80;;;;;;;;;;5089879;28;20487;-81
2023/08/31 12:18:12;;;;;;;6.88;3.90;;;;;;;;;;5090848;28;20028;-80
2023/08/31 12:20:43;;;;;;;6.45;3.75;;;;;;;;;;5070639;28;20108;-80
2023/08/31 12:23:09;;;;;;;10.90;4.13;;;;;;;;;;5089443;28;20036;-81
2023/08/31 12:25:35;;;;;;;7.60;3.58;;;;;;;;;;5090400;28;20040;-80
2023/08/31 12:28:00;;;;;;;7.53;3.40;;;;;;;;;;5089513;28;20123;-80
2023/08/31 12:30:26;;;;;;;5.00;3.47;;;;;;;;;;5084112;28;20027;-80
2023/08/31 12:32:52;;;;;;;8.65;3.38;;;;;;;;;;5098857;28;20486;-81
2023/08/31 12:35:17;;;;;;;7.32;3.50;;;;;;;;;;5089375;28;20031;-80
2023/08/31 12:37:42;;;;;;;5.85;3.40;;;;;;;;;;5090571;28;20407;-80
2023/08/31 12:40:09;;;;;;;9.88;3.42;;;;;;;;;;5085461;28;20124;-81
2023/08/31 12:42:35;;;;;;;5.32;3.33;;;;;;;;;;5083339;28;20055;-81
2023/08/31 12:45:01;;;;;;;6.82;3.17;;;;;;;;;;5089352;28;20463;-81
2023/08/31 12:47:26;;;;;;;6.03;3.60;;;;;;;;;;5089591;28;20468;-81
2023/08/31 12:49:52;;;;;;;8.30;3.92;;;;;;;;;;5091070;28;20647;-81
2023/08/31 12:52:17;;;;;;;5.90;3.83;;;;;;;;;;5090162;28;20123;-81
2023/08/31 12:54:43;;;;;;;6.00;3.70;;;;;;;;;;5081932;28;20032;-81
2023/08/31 12:57:08;;;;;;;5.43;3.60;;;;;;;;;;5094744;28;20068;-80
2023/08/31 12:59:33;;;;;;;7.53;3.50;;;;;;;;;;5082592;28;20042;-80
2023/08/31 13:01:59;;;;;;;9.23;3.67;;;;;;;;;;5084404;28;20036;-82
2023/08/31 13:04:25;;;;;;;9.18;3.30;;;;;;;;;;5076119;28;20016;-80
2023/08/31 13:06:50;;;;;;;6.40;3.17;;;;;;;;;;5076050;28;20033;-80
2023/08/31 13:09:16;;;;;;;8.40;3.78;;;;;;;;;;5079016;28;20530;-80
2023/08/31 13:11:41;;;;;;;6.22;3.80;;;;;;;;;;5083963;28;20514;-80
2023/08/31 13:14:06;;;;;;;6.05;3.40;;;;;;;;;;5092443;28;20381;-81
2023/08/31 13:16:33;;;;;;;7.70;3.80;;;;;;;;;;5092392;28;20048;-80
2023/08/31 13:18:58;;;;;;;7.60;3.50;;;;;;;;;;5082419;28;20127;-82
2023/08/31 13:21:24;;;;;;;7.43;3.72;;;;;;;;;;5092999;28;20115;-80
2023/08/31 13:23:49;;;;;;;7.80;3.38;;;;;;;;;;5094278;28;20031;-81
2023/08/31 13:26:14;;;;;;;9.15;3.70;;;;;;;;;;5094827;28;20052;-80
2023/08/31 13:28:41;;;;;;;6.93;3.83;;;;;;;;;;5094070;28;20048;-81
2023/08/31 13:31:06;;;;;;;8.65;3.80;;;;;;;;;;5089480;28;20034;-81
2023/08/31 13:33:32;;;;;;;6.15;3.50;;;;;;;;;;5090589;28;20130;-80
2023/08/31 13:35:58;;;;;;;4.43;3.22;;;;;;;;;;5097598;28;20525;-81
2023/08/31 13:38:24;;;;;;;8.20;3.78;;;;;;;;;;5096471;28;20036;-81
2023/08/31 13:40:53;;;;;;;7.93;3.45;;;;;;;;;;5075529;28;20035;-81
2023/08/31 13:43:19;;;;;;;5.35;3.30;;;;;;;;;;5094132;28;20028;-80
2023/08/31 13:45:44;;;;;;;8.77;3.55;;;;;;;;;;5093858;28;20044;-80
2023/08/31 13:48:10;;;;;;;6.55;3.63;;;;;;;;;;5092205;28;20016;-80
2023/08/31 13:50:35;;;;;;;5.22;3.35;;;;;;;;;;5092994;28;20032;-80
2023/08/31 13:53:01;;;;;;;6.07;3.83;;;;;;;;;;5074546;28;20020;-80
2023/08/31 13:55:27;;;;;;;5.93;3.60;;;;;;;;;;5092226;28;20157;-80
2023/08/31 13:57:52;;;;;;;8.55;3.80;;;;;;;;;;5092792;28;20368;-80
2023/08/31 14:00:18;;;;;;;7.20;3.65;;;;;;;;;;5074964;28;20123;-80
2023/08/31 14:02:44;;;;;;;5.95;3.42;;;;;;;;;;5087807;28;20020;-80
2023/08/31 14:05:10;;;;;;;6.18;3.83;;;;;;;;;;5072556;28;20048;-79
2023/08/31 14:07:35;;;;;;;4.75;3.80;;;;;;;;;;5074458;28;20029;-80
2023/08/31 14:10:01;;;;;;;8.38;3.83;;;;;;;;;;5080990;28;20027;-79
2023/08/31 14:12:27;;;;;;;5.10;3.60;;;;;;;;;;5091380;28;20698;-81
2023/08/31 14:14:52;;;;;;;6.03;3.55;;;;;;;;;;5075900;28;20061;-81
2023/08/31 14:17:18;;;;;;;9.90;3.90;;;;;;;;;;5090807;28;20038;-81
2023/08/31 14:19:44;;;;;;;7.07;4.13;;;;;;;;;;5090875;28;20032;-81
2023/08/31 14:22:09;;;;;;;6.20;3.70;;;;;;;;;;5091883;28;20028;-80
2023/08/31 14:24:36;;;;;;;6.90;4.30;;;;;;;;;;5092991;28;20032;-80